Foothill Ranch, California
Current Conditions -  °F | °C
As of 10:53 AM on Sunday 23 Nov 2014 (Local Time) from KSNA Reporting Station
Broken Clouds Broken Clouds  
Wind Chill: 80°   Ceiling: 28000
Heat Index: 80°   Visibility: 10mi
Dew Point:   Wind: 15mph
Humidity: 6%   Direction: 20°NNE
Pressure: 30.1"   Gusts: 26mph
Location:  33.62°N, 117.69°W
Report Text: KSNA 231853Z 02013G23KT 10SM BKN280 27/M13 A3010 RMK AO2 PK WND 01026/1841 SLP190 T02671133
Loading
Personal Weather Stations






























Interactive Weather Map New forecast layout! Learn more

10-Day Weather Forecast

Advertisements
Track Severe Weather on mobile